sensor_id;sensor_type;location;lat;lon;timestamp;pressure;altitude;pressure_sealevel;temperature
47484;BMP280;54076;50.322;18.650;2022-07-23T00:02:06;99175.38;;;21.48
47484;BMP280;54076;50.322;18.650;2022-07-23T00:07:07;99175.91;;;21.68
47484;BMP280;54076;50.322;18.650;2022-07-23T00:12:08;99179.14;;;21.50
47484;BMP280;54076;50.322;18.650;2022-07-23T00:17:09;99172.04;;;21.32
47484;BMP280;54076;50.322;18.650;2022-07-23T00:22:10;99170.67;;;21.37
47484;BMP280;54076;50.322;18.650;2022-07-23T00:27:11;99171.11;;;21.09
47484;BMP280;54076;50.322;18.650;2022-07-23T00:32:12;99170.05;;;21.09
47484;BMP280;54076;50.322;18.650;2022-07-23T00:37:13;99169.23;;;21.12
47484;BMP280;54076;50.322;18.650;2022-07-23T00:42:14;99171.48;;;21.15
47484;BMP280;54076;50.322;18.650;2022-07-23T00:47:15;99172.96;;;21.05
47484;BMP280;54076;50.322;18.650;2022-07-23T00:52:16;99171.71;;;20.95
47484;BMP280;54076;50.322;18.650;2022-07-23T00:57:17;99172.73;;;20.91
47484;BMP280;54076;50.322;18.650;2022-07-23T01:02:18;99169.45;;;20.82
47484;BMP280;54076;50.322;18.650;2022-07-23T01:07:20;99167.41;;;20.68
47484;BMP280;54076;50.322;18.650;2022-07-23T01:12:22;99161.63;;;20.73
47484;BMP280;54076;50.322;18.650;2022-07-23T01:17:23;99164.44;;;20.74
47484;BMP280;54076;50.322;18.650;2022-07-23T01:22:29;99160.77;;;20.74
47484;BMP280;54076;50.322;18.650;2022-07-23T01:27:30;99154.84;;;20.68
47484;BMP280;54076;50.322;18.650;2022-07-23T01:32:31;99152.94;;;20.67
47484;BMP280;54076;50.322;18.650;2022-07-23T01:37:32;99155.00;;;20.61
47484;BMP280;54076;50.322;18.650;2022-07-23T01:42:33;99159.36;;;20.52
47484;BMP280;54076;50.322;18.650;2022-07-23T01:47:35;99159.71;;;20.45
47484;BMP280;54076;50.322;18.650;2022-07-23T01:52:36;99154.41;;;20.31
47484;BMP280;54076;50.322;18.650;2022-07-23T01:57:36;99158.49;;;20.45
47484;BMP280;54076;50.322;18.650;2022-07-23T02:02:38;99156.56;;;20.48
47484;BMP280;54076;50.322;18.650;2022-07-23T02:07:39;99160.79;;;20.11
47484;BMP280;54076;50.322;18.650;2022-07-23T02:12:40;99160.50;;;19.90
47484;BMP280;54076;50.322;18.650;2022-07-23T02:17:41;99164.21;;;19.95
47484;BMP280;54076;50.322;18.650;2022-07-23T02:22:42;99161.25;;;19.93
47484;BMP280;54076;50.322;18.650;2022-07-23T02:27:43;99157.48;;;20.05
47484;BMP280;54076;50.322;18.650;2022-07-23T02:32:44;99158.94;;;20.10
47484;BMP280;54076;50.322;18.650;2022-07-23T02:37:45;99157.17;;;19.96
47484;BMP280;54076;50.322;18.650;2022-07-23T02:42:46;99156.24;;;20.05
47484;BMP280;54076;50.322;18.650;2022-07-23T02:47:47;99156.73;;;19.92
47484;BMP280;54076;50.322;18.650;2022-07-23T02:52:48;99156.84;;;19.70
47484;BMP280;54076;50.322;18.650;2022-07-23T02:57:49;99145.64;;;19.73
47484;BMP280;54076;50.322;18.650;2022-07-23T03:02:50;99151.14;;;19.82
47484;BMP280;54076;50.322;18.650;2022-07-23T03:07:50;99157.19;;;19.91
47484;BMP280;54076;50.322;18.650;2022-07-23T03:12:51;99161.12;;;19.60
47484;BMP280;54076;50.322;18.650;2022-07-23T03:17:52;99154.56;;;19.64
47484;BMP280;54076;50.322;18.650;2022-07-23T03:22:53;99144.39;;;19.72
47484;BMP280;54076;50.322;18.650;2022-07-23T03:27:54;99140.80;;;19.83
47484;BMP280;54076;50.322;18.650;2022-07-23T03:32:55;99141.56;;;19.85
47484;BMP280;54076;50.322;18.650;2022-07-23T03:37:56;99150.64;;;19.57
47484;BMP280;54076;50.322;18.650;2022-07-23T03:42:57;99159.05;;;19.35
47484;BMP280;54076;50.322;18.650;2022-07-23T03:47:58;99153.94;;;19.47
47484;BMP280;54076;50.322;18.650;2022-07-23T03:52:59;99158.23;;;19.55
47484;BMP280;54076;50.322;18.650;2022-07-23T03:58:00;99150.48;;;19.72
47484;BMP280;54076;50.322;18.650;2022-07-23T04:03:02;99150.21;;;19.94
47484;BMP280;54076;50.322;18.650;2022-07-23T04:08:03;99150.50;;;19.92
47484;BMP280;54076;50.322;18.650;2022-07-23T04:13:04;99152.50;;;19.80
47484;BMP280;54076;50.322;18.650;2022-07-23T04:18:05;99148.97;;;19.68
47484;BMP280;54076;50.322;18.650;2022-07-23T04:23:06;99152.49;;;20.00
47484;BMP280;54076;50.322;18.650;2022-07-23T04:28:08;99143.42;;;20.09
47484;BMP280;54076;50.322;18.650;2022-07-23T04:33:09;99140.98;;;20.31
47484;BMP280;54076;50.322;18.650;2022-07-23T04:38:10;99138.09;;;20.32
47484;BMP280;54076;50.322;18.650;2022-07-23T04:43:11;99141.65;;;20.58
47484;BMP280;54076;50.322;18.650;2022-07-23T04:48:12;99139.13;;;20.81
47484;BMP280;54076;50.322;18.650;2022-07-23T04:53:12;99135.45;;;20.94
47484;BMP280;54076;50.322;18.650;2022-07-23T04:58:14;99128.42;;;21.20
47484;BMP280;54076;50.322;18.650;2022-07-23T05:03:17;99134.33;;;21.41
47484;BMP280;54076;50.322;18.650;2022-07-23T05:08:18;99131.41;;;21.62
47484;BMP280;54076;50.322;18.650;2022-07-23T05:13:19;99124.73;;;21.81
47484;BMP280;54076;50.322;18.650;2022-07-23T05:18:20;99126.11;;;21.74
47484;BMP280;54076;50.322;18.650;2022-07-23T05:23:21;99124.95;;;21.85
47484;BMP280;54076;50.322;18.650;2022-07-23T05:28:22;99123.58;;;22.08
47484;BMP280;54076;50.322;18.650;2022-07-23T05:33:23;99121.95;;;22.32
47484;BMP280;54076;50.322;18.650;2022-07-23T05:38:24;99117.36;;;22.66
47484;BMP280;54076;50.322;18.650;2022-07-23T05:43:25;99106.72;;;22.84
47484;BMP280;54076;50.322;18.650;2022-07-23T05:48:26;99104.28;;;23.26
47484;BMP280;54076;50.322;18.650;2022-07-23T05:53:27;99085.48;;;23.82
47484;BMP280;54076;50.322;18.650;2022-07-23T05:58:28;99071.20;;;24.23
47484;BMP280;54076;50.322;18.650;2022-07-23T06:03:29;99049.47;;;24.34
47484;BMP280;54076;50.322;18.650;2022-07-23T06:08:30;99043.50;;;24.20
47484;BMP280;54076;50.322;18.650;2022-07-23T06:13:31;99051.11;;;24.21
47484;BMP280;54076;50.322;18.650;2022-07-23T06:18:32;99052.25;;;24.47
47484;BMP280;54076;50.322;18.650;2022-07-23T06:23:33;99047.82;;;24.77
47484;BMP280;54076;50.322;18.650;2022-07-23T06:28:33;99046.67;;;25.08
47484;BMP280;54076;50.322;18.650;2022-07-23T06:33:34;99050.91;;;25.40
47484;BMP280;54076;50.322;18.650;2022-07-23T06:38:35;99046.27;;;25.63
47484;BMP280;54076;50.322;18.650;2022-07-23T06:43:36;99047.62;;;25.66
47484;BMP280;54076;50.322;18.650;2022-07-23T06:48:37;99052.05;;;25.80
47484;BMP280;54076;50.322;18.650;2022-07-23T06:53:38;99037.69;;;25.93
47484;BMP280;54076;50.322;18.650;2022-07-23T06:58:39;99039.98;;;26.13
47484;BMP280;54076;50.322;18.650;2022-07-23T07:03:40;99034.92;;;26.32
47484;BMP280;54076;50.322;18.650;2022-07-23T07:08:41;99038.23;;;26.55
47484;BMP280;54076;50.322;18.650;2022-07-23T07:13:43;99044.45;;;26.66
47484;BMP280;54076;50.322;18.650;2022-07-23T07:18:44;99030.52;;;26.93
47484;BMP280;54076;50.322;18.650;2022-07-23T07:23:45;99032.80;;;27.19
47484;BMP280;54076;50.322;18.650;2022-07-23T07:28:46;99040.14;;;27.47
47484;BMP280;54076;50.322;18.650;2022-07-23T07:33:47;99037.42;;;27.83
47484;BMP280;54076;50.322;18.650;2022-07-23T07:38:48;99043.33;;;27.95
47484;BMP280;54076;50.322;18.650;2022-07-23T07:43:50;99030.88;;;28.25
47484;BMP280;54076;50.322;18.650;2022-07-23T07:48:51;99035.61;;;28.38
47484;BMP280;54076;50.322;18.650;2022-07-23T07:53:52;99035.39;;;28.44
47484;BMP280;54076;50.322;18.650;2022-07-23T07:58:53;99031.92;;;28.54
47484;BMP280;54076;50.322;18.650;2022-07-23T08:03:54;99024.48;;;28.66
47484;BMP280;54076;50.322;18.650;2022-07-23T08:08:55;99010.27;;;28.92
47484;BMP280;54076;50.322;18.650;2022-07-23T08:13:56;99005.71;;;29.25
47484;BMP280;54076;50.322;18.650;2022-07-23T08:18:57;99000.23;;;29.43
47484;BMP280;54076;50.322;18.650;2022-07-23T08:23:58;98991.52;;;29.75
47484;BMP280;54076;50.322;18.650;2022-07-23T08:28:59;98995.48;;;29.88
47484;BMP280;54076;50.322;18.650;2022-07-23T08:34:00;98989.27;;;30.09
47484;BMP280;54076;50.322;18.650;2022-07-23T08:39:01;98992.27;;;30.26
47484;BMP280;54076;50.322;18.650;2022-07-23T08:44:07;98996.86;;;30.79
47484;BMP280;54076;50.322;18.650;2022-07-23T08:49:08;98998.64;;;31.16
47484;BMP280;54076;50.322;18.650;2022-07-23T08:54:09;98997.18;;;31.39
47484;BMP280;54076;50.322;18.650;2022-07-23T08:59:11;98997.18;;;31.43
47484;BMP280;54076;50.322;18.650;2022-07-23T09:04:14;98996.15;;;31.36
47484;BMP280;54076;50.322;18.650;2022-07-23T09:09:20;99001.30;;;31.56
47484;BMP280;54076;50.322;18.650;2022-07-23T09:14:43;98997.09;;;31.85
47484;BMP280;54076;50.322;18.650;2022-07-23T09:19:45;98998.50;;;31.93
47484;BMP280;54076;50.322;18.650;2022-07-23T09:25:15;98987.59;;;32.18
47484;BMP280;54076;50.322;18.650;2022-07-23T09:30:16;98988.80;;;32.47
47484;BMP280;54076;50.322;18.650;2022-07-23T09:35:17;98989.16;;;33.00
47484;BMP280;54076;50.322;18.650;2022-07-23T09:40:18;98986.90;;;32.52
47484;BMP280;54076;50.322;18.650;2022-07-23T09:45:20;98984.86;;;32.35
47484;BMP280;54076;50.322;18.650;2022-07-23T09:50:21;98982.00;;;32.63
47484;BMP280;54076;50.322;18.650;2022-07-23T09:55:32;98981.23;;;32.72
47484;BMP280;54076;50.322;18.650;2022-07-23T10:00:40;98975.40;;;32.67
47484;BMP280;54076;50.322;18.650;2022-07-23T10:05:42;98978.06;;;32.93
47484;BMP280;54076;50.322;18.650;2022-07-23T10:10:46;98963.98;;;32.99
47484;BMP280;54076;50.322;18.650;2022-07-23T10:15:47;98974.48;;;33.07
47484;BMP280;54076;50.322;18.650;2022-07-23T10:20:49;98963.48;;;33.30
47484;BMP280;54076;50.322;18.650;2022-07-23T10:26:17;98969.07;;;33.69
47484;BMP280;54076;50.322;18.650;2022-07-23T10:36:56;98967.57;;;34.26
47484;BMP280;54076;50.322;18.650;2022-07-23T10:42:12;98947.91;;;34.74
47484;BMP280;54076;50.322;18.650;2022-07-23T10:47:29;98940.77;;;33.99
47484;BMP280;54076;50.322;18.650;2022-07-23T10:52:41;98957.27;;;34.77
47484;BMP280;54076;50.322;18.650;2022-07-23T10:57:51;98946.91;;;35.58
47484;BMP280;54076;50.322;18.650;2022-07-23T11:02:55;98931.34;;;36.60
47484;BMP280;54076;50.322;18.650;2022-07-23T11:34:40;98915.27;;;37.61
47484;BMP280;54076;50.322;18.650;2022-07-23T11:39:42;98909.77;;;37.96
47484;BMP280;54076;50.322;18.650;2022-07-23T11:44:46;98903.46;;;37.62
47484;BMP280;54076;50.322;18.650;2022-07-23T11:50:00;98882.47;;;36.43
47484;BMP280;54076;50.322;18.650;2022-07-23T11:55:07;98885.51;;;35.92
47484;BMP280;54076;50.322;18.650;2022-07-23T12:00:19;98879.12;;;36.38
47484;BMP280;54076;50.322;18.650;2022-07-23T12:05:24;98864.23;;;36.32
47484;BMP280;54076;50.322;18.650;2022-07-23T12:10:41;98869.81;;;35.50
47484;BMP280;54076;50.322;18.650;2022-07-23T12:15:46;98870.85;;;34.83
47484;BMP280;54076;50.322;18.650;2022-07-23T12:20:52;98865.11;;;34.71
47484;BMP280;54076;50.322;18.650;2022-07-23T12:25:54;98856.20;;;34.15
47484;BMP280;54076;50.322;18.650;2022-07-23T12:30:58;98853.48;;;34.11
47484;BMP280;54076;50.322;18.650;2022-07-23T12:36:03;98847.66;;;34.25
47484;BMP280;54076;50.322;18.650;2022-07-23T12:41:04;98842.16;;;34.16
47484;BMP280;54076;50.322;18.650;2022-07-23T12:46:15;98846.61;;;35.62
47484;BMP280;54076;50.322;18.650;2022-07-23T12:51:30;98837.73;;;37.17
47484;BMP280;54076;50.322;18.650;2022-07-23T12:56:35;98829.55;;;36.74
47484;BMP280;54076;50.322;18.650;2022-07-23T13:01:39;98840.02;;;36.35
47484;BMP280;54076;50.322;18.650;2022-07-23T13:06:44;98835.63;;;35.11
47484;BMP280;54076;50.322;18.650;2022-07-23T13:11:48;98823.52;;;34.71
47484;BMP280;54076;50.322;18.650;2022-07-23T13:16:52;98817.52;;;34.52
47484;BMP280;54076;50.322;18.650;2022-07-23T13:21:54;98813.27;;;34.30
47484;BMP280;54076;50.322;18.650;2022-07-23T13:26:55;98827.98;;;34.06
47484;BMP280;54076;50.322;18.650;2022-07-23T13:31:56;98829.02;;;33.97
47484;BMP280;54076;50.322;18.650;2022-07-23T13:36:57;98847.86;;;33.40
47484;BMP280;54076;50.322;18.650;2022-07-23T13:41:58;98912.98;;;31.99
47484;BMP280;54076;50.322;18.650;2022-07-23T13:46:58;98911.44;;;30.51
47484;BMP280;54076;50.322;18.650;2022-07-23T13:51:59;98911.36;;;29.61
47484;BMP280;54076;50.322;18.650;2022-07-23T13:57:00;98951.51;;;28.01
47484;BMP280;54076;50.322;18.650;2022-07-23T14:02:05;98948.07;;;27.83
47484;BMP280;54076;50.322;18.650;2022-07-23T14:07:06;98946.45;;;28.37
47484;BMP280;54076;50.322;18.650;2022-07-23T14:12:08;98952.91;;;29.20
47484;BMP280;54076;50.322;18.650;2022-07-23T14:17:09;98952.73;;;28.89
47484;BMP280;54076;50.322;18.650;2022-07-23T14:22:10;98952.25;;;28.51
47484;BMP280;54076;50.322;18.650;2022-07-23T14:27:12;98941.15;;;27.97
47484;BMP280;54076;50.322;18.650;2022-07-23T14:32:13;98941.84;;;28.82
47484;BMP280;54076;50.322;18.650;2022-07-23T14:37:14;98929.27;;;29.20
47484;BMP280;54076;50.322;18.650;2022-07-23T14:42:16;98930.53;;;29.27
47484;BMP280;54076;50.322;18.650;2022-07-23T14:47:17;98935.66;;;28.92
47484;BMP280;54076;50.322;18.650;2022-07-23T14:52:18;98933.95;;;28.50
47484;BMP280;54076;50.322;18.650;2022-07-23T14:57:19;98946.27;;;28.85
47484;BMP280;54076;50.322;18.650;2022-07-23T15:02:20;98943.36;;;28.95
47484;BMP280;54076;50.322;18.650;2022-07-23T15:07:21;98939.20;;;29.25
47484;BMP280;54076;50.322;18.650;2022-07-23T15:12:22;98912.05;;;29.66
47484;BMP280;54076;50.322;18.650;2022-07-23T15:17:24;98906.17;;;29.40
47484;BMP280;54076;50.322;18.650;2022-07-23T15:22:26;98912.12;;;29.06
47484;BMP280;54076;50.322;18.650;2022-07-23T15:27:27;98907.45;;;28.47
47484;BMP280;54076;50.322;18.650;2022-07-23T15:32:28;98919.83;;;28.38
47484;BMP280;54076;50.322;18.650;2022-07-23T15:37:29;98930.81;;;28.22
47484;BMP280;54076;50.322;18.650;2022-07-23T15:42:30;98928.50;;;28.16
47484;BMP280;54076;50.322;18.650;2022-07-23T15:47:31;98926.47;;;28.02
47484;BMP280;54076;50.322;18.650;2022-07-23T15:52:32;98934.73;;;27.65
47484;BMP280;54076;50.322;18.650;2022-07-23T15:57:35;98933.98;;;27.49
47484;BMP280;54076;50.322;18.650;2022-07-23T16:02:36;98939.85;;;27.16
47484;BMP280;54076;50.322;18.650;2022-07-23T16:07:37;98948.05;;;27.01
47484;BMP280;54076;50.322;18.650;2022-07-23T16:12:38;98944.31;;;26.92
47484;BMP280;54076;50.322;18.650;2022-07-23T16:17:40;98939.75;;;26.89
47484;BMP280;54076;50.322;18.650;2022-07-23T16:22:41;98938.94;;;26.71
47484;BMP280;54076;50.322;18.650;2022-07-23T16:27:42;98959.80;;;26.63
47484;BMP280;54076;50.322;18.650;2022-07-23T16:32:43;98973.17;;;26.42
47484;BMP280;54076;50.322;18.650;2022-07-23T16:37:44;98984.80;;;26.43
47484;BMP280;54076;50.322;18.650;2022-07-23T16:42:45;98984.27;;;26.37
47484;BMP280;54076;50.322;18.650;2022-07-23T16:47:46;98990.09;;;26.14
47484;BMP280;54076;50.322;18.650;2022-07-23T16:52:47;98991.80;;;25.88
47484;BMP280;54076;50.322;18.650;2022-07-23T16:57:48;98985.38;;;25.94
47484;BMP280;54076;50.322;18.650;2022-07-23T17:02:49;98984.61;;;25.97
47484;BMP280;54076;50.322;18.650;2022-07-23T17:07:50;98976.02;;;26.11
47484;BMP280;54076;50.322;18.650;2022-07-23T17:12:54;98976.56;;;26.11
47484;BMP280;54076;50.322;18.650;2022-07-23T17:17:54;98990.23;;;25.81
47484;BMP280;54076;50.322;18.650;2022-07-23T17:22:55;98991.39;;;25.52
47484;BMP280;54076;50.322;18.650;2022-07-23T17:27:56;98997.54;;;25.49
47484;BMP280;54076;50.322;18.650;2022-07-23T17:32:58;98983.04;;;25.54
47484;BMP280;54076;50.322;18.650;2022-07-23T17:37:59;98995.69;;;25.23
47484;BMP280;54076;50.322;18.650;2022-07-23T17:43:00;99016.14;;;25.15
47484;BMP280;54076;50.322;18.650;2022-07-23T17:48:01;99015.11;;;25.07
47484;BMP280;54076;50.322;18.650;2022-07-23T17:53:03;99020.02;;;25.24
47484;BMP280;54076;50.322;18.650;2022-07-23T17:58:05;99034.71;;;25.37
47484;BMP280;54076;50.322;18.650;2022-07-23T18:03:06;99049.77;;;25.51
47484;BMP280;54076;50.322;18.650;2022-07-23T18:08:07;99060.45;;;25.32
47484;BMP280;54076;50.322;18.650;2022-07-23T18:13:08;99063.45;;;25.38
47484;BMP280;54076;50.322;18.650;2022-07-23T18:18:09;99069.36;;;25.31
47484;BMP280;54076;50.322;18.650;2022-07-23T18:23:10;99068.09;;;25.35
47484;BMP280;54076;50.322;18.650;2022-07-23T18:28:11;99071.95;;;25.34
47484;BMP280;54076;50.322;18.650;2022-07-23T18:33:13;99072.51;;;25.33
47484;BMP280;54076;50.322;18.650;2022-07-23T18:38:14;99076.36;;;25.38
47484;BMP280;54076;50.322;18.650;2022-07-23T18:43:17;99081.83;;;25.32
47484;BMP280;54076;50.322;18.650;2022-07-23T18:48:19;99086.77;;;25.26
47484;BMP280;54076;50.322;18.650;2022-07-23T18:53:20;99093.73;;;25.38
47484;BMP280;54076;50.322;18.650;2022-07-23T18:58:21;99094.60;;;25.28
47484;BMP280;54076;50.322;18.650;2022-07-23T19:03:22;99105.25;;;25.21
47484;BMP280;54076;50.322;18.650;2022-07-23T19:08:23;99111.65;;;25.27
47484;BMP280;54076;50.322;18.650;2022-07-23T19:13:25;99120.45;;;25.30
47484;BMP280;54076;50.322;18.650;2022-07-23T19:18:26;99132.92;;;25.29
47484;BMP280;54076;50.322;18.650;2022-07-23T19:23:27;99147.96;;;25.07
47484;BMP280;54076;50.322;18.650;2022-07-23T19:28:28;99163.30;;;24.77
47484;BMP280;54076;50.322;18.650;2022-07-23T19:33:29;99162.71;;;24.50
47484;BMP280;54076;50.322;18.650;2022-07-23T19:38:30;99170.09;;;24.59
47484;BMP280;54076;50.322;18.650;2022-07-23T19:43:31;99175.83;;;24.50
47484;BMP280;54076;50.322;18.650;2022-07-23T19:48:32;99187.90;;;24.52
47484;BMP280;54076;50.322;18.650;2022-07-23T19:53:34;99187.98;;;24.61
47484;BMP280;54076;50.322;18.650;2022-07-23T19:58:35;99190.58;;;24.67
47484;BMP280;54076;50.322;18.650;2022-07-23T20:03:36;99184.39;;;24.71
47484;BMP280;54076;50.322;18.650;2022-07-23T20:08:37;99177.31;;;24.61
47484;BMP280;54076;50.322;18.650;2022-07-23T20:13:38;99169.77;;;24.55
47484;BMP280;54076;50.322;18.650;2022-07-23T20:18:39;99154.39;;;24.42
47484;BMP280;54076;50.322;18.650;2022-07-23T20:23:40;99147.30;;;24.37
47484;BMP280;54076;50.322;18.650;2022-07-23T20:28:41;99150.23;;;24.30
47484;BMP280;54076;50.322;18.650;2022-07-23T20:33:42;99160.89;;;23.84
47484;BMP280;54076;50.322;18.650;2022-07-23T20:38:43;99167.59;;;23.30
47484;BMP280;54076;50.322;18.650;2022-07-23T20:43:44;99185.03;;;23.40
47484;BMP280;54076;50.322;18.650;2022-07-23T20:48:45;99201.45;;;23.36
47484;BMP280;54076;50.322;18.650;2022-07-23T20:53:47;99199.10;;;23.35
47484;BMP280;54076;50.322;18.650;2022-07-23T20:58:49;99218.59;;;23.12
47484;BMP280;54076;50.322;18.650;2022-07-23T21:03:51;99226.60;;;23.02
47484;BMP280;54076;50.322;18.650;2022-07-23T21:08:52;99229.16;;;22.97
47484;BMP280;54076;50.322;18.650;2022-07-23T21:13:53;99238.79;;;22.52
47484;BMP280;54076;50.322;18.650;2022-07-23T21:18:54;99249.05;;;22.47
47484;BMP280;54076;50.322;18.650;2022-07-23T21:23:55;99255.25;;;22.53
47484;BMP280;54076;50.322;18.650;2022-07-23T21:28:56;99263.02;;;22.41
47484;BMP280;54076;50.322;18.650;2022-07-23T21:33:57;99255.29;;;22.37
47484;BMP280;54076;50.322;18.650;2022-07-23T21:38:59;99262.61;;;22.38
47484;BMP280;54076;50.322;18.650;2022-07-23T21:44:00;99267.67;;;22.24
47484;BMP280;54076;50.322;18.650;2022-07-23T21:49:02;99257.52;;;22.38
47484;BMP280;54076;50.322;18.650;2022-07-23T21:54:03;99269.76;;;22.18
47484;BMP280;54076;50.322;18.650;2022-07-23T21:59:04;99274.20;;;22.23
47484;BMP280;54076;50.322;18.650;2022-07-23T22:04:05;99279.27;;;22.24
47484;BMP280;54076;50.322;18.650;2022-07-23T22:09:07;99277.75;;;22.17
47484;BMP280;54076;50.322;18.650;2022-07-23T22:14:08;99279.86;;;22.07
47484;BMP280;54076;50.322;18.650;2022-07-23T22:19:09;99283.92;;;22.04
47484;BMP280;54076;50.322;18.650;2022-07-23T22:24:10;99292.05;;;22.12
47484;BMP280;54076;50.322;18.650;2022-07-23T22:29:12;99286.42;;;22.06
47484;BMP280;54076;50.322;18.650;2022-07-23T22:34:13;99285.27;;;22.23
47484;BMP280;54076;50.322;18.650;2022-07-23T22:39:14;99287.38;;;21.92
47484;BMP280;54076;50.322;18.650;2022-07-23T22:44:15;99288.58;;;21.90
47484;BMP280;54076;50.322;18.650;2022-07-23T22:49:16;99288.48;;;21.84
47484;BMP280;54076;50.322;18.650;2022-07-23T22:54:17;99286.83;;;21.85
47484;BMP280;54076;50.322;18.650;2022-07-23T22:59:18;99293.42;;;21.82
47484;BMP280;54076;50.322;18.650;2022-07-23T23:04:19;99294.33;;;21.87
47484;BMP280;54076;50.322;18.650;2022-07-23T23:09:20;99295.50;;;21.70
47484;BMP280;54076;50.322;18.650;2022-07-23T23:14:22;99303.23;;;21.68
47484;BMP280;54076;50.322;18.650;2022-07-23T23:19:23;99309.75;;;21.80
47484;BMP280;54076;50.322;18.650;2022-07-23T23:24:24;99309.92;;;21.58
47484;BMP280;54076;50.322;18.650;2022-07-23T23:29:25;99312.75;;;21.65
47484;BMP280;54076;50.322;18.650;2022-07-23T23:34:26;99319.17;;;21.70
47484;BMP280;54076;50.322;18.650;2022-07-23T23:39:27;99323.41;;;21.50
47484;BMP280;54076;50.322;18.650;2022-07-23T23:44:28;99328.34;;;21.31
47484;BMP280;54076;50.322;18.650;2022-07-23T23:49:28;99325.98;;;21.28
47484;BMP280;54076;50.322;18.650;2022-07-23T23:54:29;99327.02;;;21.24
47484;BMP280;54076;50.322;18.650;2022-07-23T23:59:30;99340.42;;;21.12
